createdAt,value
2019-03-16T00:00:32.894Z,3.83
2019-03-16T00:03:08.266Z,3.60
2019-03-16T00:05:39.253Z,3.90
2019-03-16T00:08:09.994Z,3.70
2019-03-16T00:10:41.517Z,3.60
2019-03-16T00:13:11.912Z,3.90
2019-03-16T00:15:40.707Z,3.50
2019-03-16T00:18:10.373Z,3.70
2019-03-16T00:20:45.221Z,3.87
2019-03-16T00:23:17.017Z,3.60
2019-03-16T00:25:51.720Z,4.23
2019-03-16T00:28:21.535Z,3.50
2019-03-16T00:30:51.507Z,3.53
2019-03-16T00:33:21.814Z,4.10
2019-03-16T00:35:53.783Z,3.07
2019-03-16T00:38:27.011Z,3.53
2019-03-16T00:41:00.994Z,3.40
2019-03-16T00:43:31.519Z,3.33
2019-03-16T00:46:01.342Z,3.50
2019-03-16T00:48:32.747Z,3.97
2019-03-16T00:51:01.992Z,3.17
2019-03-16T00:53:32.318Z,3.20
2019-03-16T00:56:04.665Z,3.33
2019-03-16T00:58:36.135Z,3.37
2019-03-16T01:01:04.895Z,3.37
2019-03-16T01:03:35.368Z,3.00
2019-03-16T01:06:05.402Z,3.30
2019-03-16T01:08:34.629Z,3.27
2019-03-16T01:11:05.477Z,3.00
2019-03-16T01:13:35.564Z,3.23
2019-03-16T01:16:03.989Z,3.53
2019-03-16T01:18:33.169Z,3.30
2019-03-16T01:21:04.806Z,3.10
2019-03-16T01:23:36.576Z,2.97
2019-03-16T01:26:09.266Z,2.83
2019-03-16T01:28:41.847Z,3.17
2019-03-16T01:31:12.239Z,2.97
2019-03-16T01:33:42.273Z,2.90
2019-03-16T01:36:12.504Z,3.30
2019-03-16T01:38:44.081Z,2.93
2019-03-16T01:41:16.262Z,2.50
2019-03-16T01:43:47.350Z,3.43
2019-03-16T01:46:18.779Z,2.90
2019-03-16T01:48:50.561Z,2.50
2019-03-16T01:51:19.561Z,2.80
2019-03-16T01:53:49.977Z,2.67
2019-03-16T01:56:20.069Z,2.87
2019-03-16T01:58:52.329Z,3.10
2019-03-16T02:01:24.225Z,2.47
2019-03-16T02:03:56.243Z,2.50
2019-03-16T02:06:27.636Z,2.50
2019-03-16T02:08:58.441Z,2.40
2019-03-16T02:11:29.987Z,2.70
2019-03-16T02:14:01.910Z,2.87
2019-03-16T02:16:33.175Z,2.80
2019-03-16T02:19:02.801Z,2.80
2019-03-16T02:21:31.796Z,2.57
2019-03-16T02:24:03.895Z,2.90
2019-03-16T02:26:34.213Z,2.70
2019-03-16T02:29:04.468Z,2.57
2019-03-16T02:31:35.049Z,2.47
2019-03-16T02:34:05.314Z,2.40
2019-03-16T02:36:38.241Z,2.33
2019-03-16T02:39:07.596Z,2.40
2019-03-16T02:41:38.999Z,2.50
2019-03-16T02:44:11.318Z,2.40
2019-03-16T02:46:42.663Z,2.50
2019-03-16T02:49:12.530Z,2.60
2019-03-16T02:51:41.200Z,2.50
2019-03-16T02:54:13.070Z,2.40
2019-03-16T02:56:47.948Z,2.20
2019-03-16T02:59:18.330Z,2.53
2019-03-16T03:01:48.389Z,2.53
2019-03-16T03:04:20.561Z,2.40
2019-03-16T03:06:51.629Z,2.20
2019-03-16T03:09:21.170Z,2.40
2019-03-16T03:11:51.073Z,2.40
2019-03-16T03:14:20.837Z,2.17
2019-03-16T03:16:49.623Z,2.40
2019-03-16T03:19:19.456Z,2.10
2019-03-16T03:21:49.471Z,2.13
2019-03-16T03:24:19.797Z,2.40
2019-03-16T03:26:50.043Z,2.50
2019-03-16T03:29:20.222Z,2.03
2019-03-16T03:31:53.294Z,2.00
2019-03-16T03:34:26.663Z,2.23
2019-03-16T03:36:59.574Z,2.00
2019-03-16T03:39:31.242Z,2.10
2019-03-16T03:42:00.667Z,1.93
2019-03-16T03:44:32.326Z,2.17
2019-03-16T03:47:00.736Z,2.30
2019-03-16T03:49:29.945Z,2.10
2019-03-16T03:52:00.494Z,1.90
2019-03-16T03:54:35.609Z,1.90
2019-03-16T03:57:04.014Z,2.27
2019-03-16T03:59:38.278Z,2.33
2019-03-16T04:02:08.274Z,2.20
2019-03-16T04:04:40.654Z,2.30
2019-03-16T04:07:11.047Z,1.90
2019-03-16T04:10:00.700Z,2.17
2019-03-16T04:12:31.854Z,1.73
2019-03-16T04:15:00.578Z,1.70
2019-03-16T04:17:32.024Z,1.90
2019-03-16T04:20:01.014Z,1.83
2019-03-16T04:22:36.479Z,1.87
2019-03-16T04:25:04.953Z,2.20
2019-03-16T04:27:34.863Z,2.43
2019-03-16T04:30:05.747Z,2.00
2019-03-16T04:32:36.532Z,1.80
2019-03-16T04:35:09.242Z,1.90
2019-03-16T04:37:39.362Z,1.70
2019-03-16T04:40:12.227Z,1.60
2019-03-16T04:42:42.834Z,1.70
2019-03-16T04:45:13.225Z,1.90
2019-03-16T04:47:45.416Z,2.00
2019-03-16T04:50:15.453Z,1.70
2019-03-16T04:52:51.018Z,2.00
2019-03-16T04:55:21.165Z,2.07
2019-03-16T04:57:56.046Z,1.43
2019-03-16T05:00:27.740Z,1.83
2019-03-16T05:02:58.116Z,1.80
2019-03-16T05:08:34.434Z,1.90
2019-03-16T05:11:04.780Z,1.60
2019-03-16T05:13:35.085Z,1.63
2019-03-16T05:16:03.495Z,1.97
2019-03-16T05:18:33.101Z,1.47
2019-03-16T05:21:03.178Z,1.60
2019-03-16T05:23:31.600Z,1.70
2019-03-16T05:26:00.310Z,1.50
2019-03-16T05:28:33.943Z,1.63
2019-03-16T05:31:03.366Z,1.70
2019-03-16T05:33:35.416Z,1.30
2019-03-16T05:36:05.893Z,1.70
2019-03-16T05:38:39.298Z,1.40
2019-03-16T05:41:10.084Z,1.57
2019-03-16T05:43:38.489Z,2.00
2019-03-16T05:46:07.064Z,1.73
2019-03-16T05:48:36.798Z,1.60
2019-03-16T05:51:10.414Z,1.80
2019-03-16T05:53:40.004Z,1.67
2019-03-16T05:56:16.542Z,1.77
2019-03-16T05:58:46.812Z,1.70
2019-03-16T06:01:17.554Z,1.40
2019-03-16T06:03:48.591Z,1.73
2019-03-16T06:06:27.746Z,1.50
2019-03-16T06:08:57.941Z,1.80
2019-03-16T06:11:27.366Z,1.47
2019-03-16T06:13:57.821Z,1.40
2019-03-16T06:16:26.220Z,1.43
2019-03-16T06:18:59.653Z,1.70
2019-03-16T06:21:31.900Z,1.90
2019-03-16T06:24:03.398Z,1.50
2019-03-16T06:26:32.682Z,2.00
2019-03-16T06:29:02.204Z,1.53
2019-03-16T06:31:31.453Z,1.50
2019-03-16T06:34:01.832Z,1.50
2019-03-16T06:36:33.160Z,1.57
2019-03-16T06:39:05.922Z,1.90
2019-03-16T06:41:43.481Z,1.60
2019-03-16T06:44:21.276Z,1.43
2019-03-16T06:46:51.214Z,1.20
2019-03-16T06:49:23.553Z,1.47
2019-03-16T06:51:53.953Z,1.60
2019-03-16T06:54:25.865Z,1.80
2019-03-16T06:56:55.600Z,1.73
2019-03-16T06:59:27.697Z,1.67
2019-03-16T07:02:01.955Z,1.50
2019-03-16T07:04:33.427Z,1.60
2019-03-16T07:07:04.344Z,1.53
2019-03-16T07:09:34.203Z,1.70
2019-03-16T07:12:05.237Z,1.40
2019-03-16T07:14:33.646Z,1.73
2019-03-16T07:17:02.615Z,1.33
2019-03-16T07:19:34.105Z,1.57
2019-03-16T07:22:03.589Z,1.30
2019-03-16T07:24:31.978Z,1.57
2019-03-16T07:27:00.684Z,1.70
2019-03-16T07:29:30.734Z,1.50
2019-03-16T07:32:04.364Z,1.60
2019-03-16T07:34:33.358Z,1.70
2019-03-16T07:37:03.445Z,1.60
2019-03-16T07:39:34.218Z,1.60
2019-03-16T07:42:04.249Z,1.47
2019-03-16T07:44:36.985Z,1.80
2019-03-16T07:47:08.301Z,1.37
2019-03-16T07:49:39.207Z,1.40
2019-03-16T07:52:09.517Z,1.50
2019-03-16T07:54:41.501Z,1.43
2019-03-16T07:57:10.057Z,1.47
2019-03-16T07:59:39.054Z,1.50
2019-03-16T08:02:08.836Z,1.63
2019-03-16T08:04:43.537Z,1.43
2019-03-16T08:07:25.661Z,1.33
2019-03-16T08:09:42.166Z,1.50
2019-03-16T08:12:13.717Z,1.87
2019-03-16T08:14:46.620Z,1.53
2019-03-16T08:17:22.406Z,1.53
2019-03-16T08:19:56.303Z,1.90
2019-03-16T08:22:27.229Z,1.20
2019-03-16T08:24:57.537Z,1.30
2019-03-16T08:27:28.605Z,1.60
2019-03-16T08:29:57.027Z,1.30
2019-03-16T08:32:28.269Z,1.30
2019-03-16T08:35:03.049Z,1.37
2019-03-16T08:37:33.141Z,1.20
2019-03-16T08:40:06.139Z,1.50
2019-03-16T08:42:37.263Z,1.20
2019-03-16T08:45:08.005Z,1.37
2019-03-16T08:47:36.677Z,1.50
2019-03-16T08:50:07.676Z,1.40
2019-03-16T08:52:39.667Z,1.30
2019-03-16T08:55:12.376Z,1.30
2019-03-16T08:57:44.085Z,1.33
2019-03-16T09:00:17.197Z,1.40
2019-03-16T09:02:46.893Z,1.40
2019-03-16T09:05:17.297Z,1.20
2019-03-16T09:07:47.129Z,1.23
2019-03-16T09:13:07.575Z,1.10
2019-03-16T09:15:37.114Z,1.10
2019-03-16T09:18:11.337Z,1.20
2019-03-16T09:20:40.995Z,1.20
2019-03-16T09:23:16.540Z,1.27
2019-03-16T09:25:47.708Z,1.10
2019-03-16T09:28:19.217Z,1.27
2019-03-16T09:30:48.031Z,1.10
2019-03-16T09:33:21.095Z,1.27
2019-03-16T09:35:52.162Z,1.50
2019-03-16T09:38:21.916Z,1.10
2019-03-16T09:40:51.987Z,1.10
2019-03-16T09:43:21.522Z,1.27
2019-03-16T09:45:50.233Z,1.33
2019-03-16T09:48:23.166Z,1.20
2019-03-16T09:50:55.063Z,1.17
2019-03-16T09:53:25.829Z,1.20
2019-03-16T09:55:58.548Z,1.40
2019-03-16T09:58:31.415Z,1.13
2019-03-16T10:01:02.174Z,1.20
2019-03-16T10:03:42.742Z,1.07
2019-03-16T10:06:14.211Z,1.40
2019-03-16T10:08:42.619Z,1.20
2019-03-16T10:11:12.167Z,1.40
2019-03-16T10:13:43.302Z,1.13
2019-03-16T10:16:14.594Z,1.10
2019-03-16T10:21:37.696Z,1.00
2019-03-16T10:24:09.801Z,1.20
2019-03-16T10:26:41.656Z,1.30
2019-03-16T10:29:19.544Z,1.10
2019-03-16T10:31:49.858Z,1.10
2019-03-16T10:34:22.375Z,1.03
2019-03-16T10:36:52.488Z,0.90
2019-03-16T10:39:21.582Z,1.50
2019-03-16T10:41:50.193Z,1.10
2019-03-16T10:44:21.860Z,1.07
2019-03-16T10:46:51.564Z,0.90
2019-03-16T10:49:22.414Z,1.10
2019-03-16T10:51:52.789Z,1.00
2019-03-16T10:54:22.605Z,1.40
2019-03-16T10:56:55.903Z,1.00
2019-03-16T10:59:25.356Z,0.93
2019-03-16T11:01:55.392Z,0.90
2019-03-16T11:04:26.834Z,1.00
2019-03-16T11:07:00.211Z,1.10
2019-03-16T11:09:29.935Z,1.13
2019-03-16T11:12:04.405Z,0.90
2019-03-16T11:14:36.373Z,1.27
2019-03-16T11:17:06.069Z,0.90
2019-03-16T11:19:36.319Z,0.93
2019-03-16T11:22:08.817Z,1.10
2019-03-16T11:24:40.532Z,0.90
2019-03-16T11:27:10.115Z,1.00
2019-03-16T11:29:41.764Z,1.00
2019-03-16T11:32:14.942Z,0.93
2019-03-16T11:34:48.065Z,1.20
2019-03-16T11:37:17.939Z,1.10
2019-03-16T11:39:46.350Z,0.83
2019-03-16T11:42:16.113Z,536.23
2019-03-16T11:44:48.604Z,713.40
2019-03-16T11:47:38.542Z,467.97
2019-03-16T11:50:11.513Z,170.37
2019-03-16T11:52:42.180Z,130.83
2019-03-16T11:55:13.923Z,113.77
2019-03-16T11:57:44.282Z,95.70
2019-03-16T12:00:16.112Z,81.77
2019-03-16T12:02:48.049Z,67.90
2019-03-16T12:05:18.330Z,59.30
2019-03-16T12:07:49.320Z,52.33
2019-03-16T12:10:19.002Z,47.73
2019-03-16T12:12:49.445Z,43.87
2019-03-16T12:15:21.275Z,41.43
2019-03-16T12:17:52.868Z,39.27
2019-03-16T12:20:22.846Z,38.13
2019-03-16T12:22:56.362Z,36.73
2019-03-16T12:25:25.322Z,33.40
2019-03-16T12:27:57.170Z,32.33
2019-03-16T12:30:27.785Z,30.13
2019-03-16T12:33:02.167Z,28.00
2019-03-16T12:35:31.952Z,27.43
2019-03-16T12:38:00.758Z,25.07
2019-03-16T12:40:29.172Z,25.13
2019-03-16T12:42:59.491Z,22.00
2019-03-16T12:45:31.548Z,22.10
2019-03-16T12:48:02.872Z,22.33
2019-03-16T12:50:33.302Z,20.47
2019-03-16T12:53:04.890Z,18.83
2019-03-16T12:55:34.225Z,17.63
2019-03-16T12:58:02.642Z,17.67
2019-03-16T13:00:31.375Z,15.60
2019-03-16T13:03:00.023Z,15.50
2019-03-16T13:05:32.504Z,15.23
2019-03-16T13:08:04.400Z,15.50
2019-03-16T13:10:34.478Z,13.63
2019-03-16T13:13:02.900Z,14.20
2019-03-16T13:15:32.370Z,13.50
2019-03-16T13:18:03.202Z,14.20
2019-03-16T13:20:31.617Z,14.27
2019-03-16T13:23:00.057Z,12.80
2019-03-16T13:25:28.475Z,12.80
2019-03-16T13:27:56.986Z,11.77
2019-03-16T13:30:25.399Z,12.50
2019-03-16T13:32:53.854Z,11.43
2019-03-16T13:35:24.180Z,10.60
2019-03-16T13:37:52.625Z,11.73
2019-03-16T13:40:22.293Z,11.47
2019-03-16T13:42:50.734Z,10.37
2019-03-16T13:45:20.794Z,9.80
2019-03-16T13:47:51.784Z,9.37
2019-03-16T13:50:21.617Z,9.80
2019-03-16T13:52:50.344Z,9.27
2019-03-16T13:55:20.493Z,9.03
2019-03-16T13:57:49.178Z,8.60
2019-03-16T14:00:24.342Z,8.43
2019-03-16T14:02:53.785Z,8.80
2019-03-16T14:05:22.752Z,9.03
2019-03-16T14:07:54.473Z,8.23
2019-03-16T14:10:26.498Z,7.67
2019-03-16T14:12:57.683Z,7.90
2019-03-16T14:15:28.048Z,7.83
2019-03-16T14:17:59.549Z,7.17
2019-03-16T14:20:28.090Z,7.43
2019-03-16T14:22:58.656Z,8.30
2019-03-16T14:25:29.010Z,8.23
2019-03-16T14:27:58.903Z,7.67
2019-03-16T14:30:40.382Z,8.57
2019-03-16T14:33:02.100Z,8.03
2019-03-16T14:35:32.197Z,7.90
2019-03-16T14:38:01.413Z,8.20
2019-03-16T14:40:32.831Z,7.90
2019-03-16T14:43:02.254Z,7.20
2019-03-16T14:45:33.495Z,8.20
2019-03-16T14:48:01.940Z,7.60
2019-03-16T14:50:31.659Z,7.33
2019-03-16T14:53:01.978Z,7.27
2019-03-16T14:55:31.624Z,7.03
2019-03-16T14:58:04.651Z,6.57
2019-03-16T15:00:38.760Z,7.40
2019-03-16T15:03:06.916Z,7.13
2019-03-16T15:05:37.101Z,6.43
2019-03-16T15:08:09.970Z,6.63
2019-03-16T15:10:41.057Z,6.67
2019-03-16T15:13:14.156Z,6.73
2019-03-16T15:15:44.227Z,6.67
2019-03-16T15:18:12.883Z,5.73
2019-03-16T15:20:42.434Z,5.90
2019-03-16T15:23:13.672Z,6.50
2019-03-16T15:25:43.741Z,5.33
2019-03-16T15:28:14.486Z,5.73
2019-03-16T15:30:50.896Z,5.67
2019-03-16T15:33:18.246Z,5.97
2019-03-16T15:35:46.680Z,6.13
2019-03-16T15:38:17.957Z,5.57
2019-03-16T15:40:49.855Z,5.07
2019-03-16T15:43:20.238Z,5.37
2019-03-16T15:45:49.976Z,5.77
2019-03-16T15:48:24.625Z,5.30
2019-03-16T15:50:54.960Z,5.30
2019-03-16T15:53:27.976Z,5.23
2019-03-16T15:55:57.243Z,5.17
2019-03-16T15:58:27.168Z,5.43
2019-03-16T16:01:04.163Z,4.60
2019-03-16T16:03:36.111Z,4.60
2019-03-16T16:06:04.725Z,5.17
2019-03-16T16:08:34.778Z,4.97
2019-03-16T16:11:03.661Z,4.77
2019-03-16T16:13:34.365Z,4.93
2019-03-16T16:16:04.678Z,5.17
2019-03-16T16:18:34.537Z,4.83
2019-03-16T16:21:04.077Z,5.20
2019-03-16T16:23:32.781Z,4.47
2019-03-16T16:26:01.455Z,4.80
2019-03-16T16:28:33.189Z,4.37
2019-03-16T16:31:15.742Z,4.57
2019-03-16T16:33:35.349Z,4.80
2019-03-16T16:36:08.305Z,4.50
2019-03-16T16:38:38.970Z,4.33
2019-03-16T16:41:07.345Z,4.00
2019-03-16T16:43:39.464Z,4.40
2019-03-16T16:46:10.732Z,4.83
2019-03-16T16:48:40.795Z,4.20
2019-03-16T16:51:09.500Z,3.80
2019-03-16T16:53:38.197Z,4.47
2019-03-16T16:56:08.672Z,4.17
2019-03-16T16:58:38.136Z,3.70
2019-03-16T17:01:08.093Z,3.90
2019-03-16T17:03:39.079Z,4.17
2019-03-16T17:06:08.924Z,4.10
2019-03-16T17:08:38.453Z,3.87
2019-03-16T17:11:11.768Z,4.10
2019-03-16T17:13:43.158Z,4.13
2019-03-16T17:16:16.398Z,3.70
2019-03-16T17:18:46.516Z,3.50
2019-03-16T17:21:14.953Z,3.60
2019-03-16T17:23:43.372Z,3.57
2019-03-16T17:26:15.375Z,3.63
2019-03-16T17:28:44.864Z,3.57
2019-03-16T17:31:16.874Z,3.30
2019-03-16T17:33:45.773Z,3.37
2019-03-16T17:36:14.571Z,3.43
2019-03-16T17:38:43.802Z,3.50
2019-03-16T17:41:12.245Z,3.43
2019-03-16T17:43:42.277Z,3.17
2019-03-16T17:46:13.457Z,3.17
2019-03-16T17:48:42.245Z,3.20
2019-03-16T17:51:13.436Z,3.17
2019-03-16T17:53:41.865Z,3.13
2019-03-16T17:56:12.257Z,3.27
2019-03-16T17:58:40.674Z,2.90
2019-03-16T18:01:09.622Z,2.93
2019-03-16T18:03:41.408Z,3.07
2019-03-16T18:06:14.787Z,3.53
2019-03-16T18:08:46.343Z,2.40
2019-03-16T18:11:14.760Z,3.37
2019-03-16T18:13:44.821Z,3.20
2019-03-16T18:16:13.228Z,2.90
2019-03-16T18:18:44.284Z,2.60
2019-03-16T18:21:15.472Z,3.07
2019-03-16T18:23:45.839Z,2.50
2019-03-16T18:26:20.685Z,3.00
2019-03-16T18:28:53.702Z,2.60
2019-03-16T18:31:26.070Z,2.67
2019-03-16T18:33:54.794Z,3.00
2019-03-16T18:36:28.863Z,2.60
2019-03-16T18:38:57.309Z,2.60
2019-03-16T18:41:25.719Z,2.57
2019-03-16T18:43:57.549Z,2.77
2019-03-16T18:46:25.957Z,2.70
2019-03-16T18:48:55.650Z,3.67
2019-03-16T18:51:25.375Z,3.00
2019-03-16T18:53:55.110Z,3.50
2019-03-16T18:56:25.564Z,3.33
2019-03-16T18:58:58.409Z,3.67
2019-03-16T19:01:26.846Z,3.70
2019-03-16T19:03:55.531Z,3.57
2019-03-16T19:06:27.086Z,3.47
2019-03-16T19:08:58.160Z,3.20
2019-03-16T19:11:28.242Z,3.83
2019-03-16T19:14:00.246Z,3.50
2019-03-16T19:16:29.518Z,3.23
2019-03-16T19:18:58.505Z,2.80
2019-03-16T19:21:29.642Z,3.37
2019-03-16T19:24:01.539Z,2.90
2019-03-16T19:26:31.205Z,3.20
2019-03-16T19:29:00.562Z,2.97
2019-03-16T19:31:31.901Z,2.73
2019-03-16T19:34:00.320Z,3.83
2019-03-16T19:36:32.425Z,3.27
2019-03-16T19:39:02.710Z,2.60
2019-03-16T19:41:31.145Z,3.83
2019-03-16T19:44:01.197Z,3.17
2019-03-16T19:46:29.826Z,3.50
2019-03-16T19:49:00.131Z,2.90
2019-03-16T19:51:33.530Z,3.00
2019-03-16T19:54:02.230Z,2.73
2019-03-16T19:56:33.024Z,3.03
2019-03-16T19:59:02.482Z,3.10
2019-03-16T20:01:33.429Z,2.47
2019-03-16T20:04:02.433Z,2.80
2019-03-16T20:06:30.848Z,3.17
2019-03-16T20:08:59.574Z,2.87
2019-03-16T20:11:27.994Z,3.57
2019-03-16T20:14:06.975Z,3.57
2019-03-16T20:16:35.666Z,3.03
2019-03-16T20:19:05.232Z,3.37
2019-03-16T20:21:33.644Z,3.03
2019-03-16T20:24:03.038Z,1.60
2019-03-16T20:26:31.754Z,2.83
2019-03-16T20:29:01.978Z,2.10
2019-03-16T20:31:32.763Z,2.07
2019-03-16T20:34:04.911Z,2.40
2019-03-16T20:36:35.218Z,2.13
2019-03-16T20:39:05.204Z,1.80
2019-03-16T20:41:36.481Z,2.17
2019-03-16T20:44:04.797Z,2.33
2019-03-16T20:46:33.564Z,2.00
2019-03-16T20:49:03.740Z,1.80
2019-03-16T20:51:35.285Z,1.83
2019-03-16T20:54:07.925Z,1.80
2019-03-16T20:56:38.209Z,2.17
2019-03-16T20:59:06.896Z,1.90
2019-03-16T21:01:36.401Z,2.27
2019-03-16T21:04:06.897Z,1.70
2019-03-16T21:06:37.246Z,1.73
2019-03-16T21:09:08.055Z,1.93
2019-03-16T21:11:39.506Z,1.60
2019-03-16T21:14:11.910Z,2.03
2019-03-16T21:16:41.452Z,1.93
2019-03-16T21:19:09.890Z,1.87
2019-03-16T21:21:38.856Z,1.97
2019-03-16T21:24:07.650Z,1.90
2019-03-16T21:26:38.501Z,1.80
2019-03-16T21:29:07.207Z,1.93
2019-03-16T21:31:38.050Z,2.00
2019-03-16T21:34:06.498Z,1.80
2019-03-16T21:36:41.438Z,1.87
2019-03-16T21:39:09.551Z,2.00
2019-03-16T21:41:37.952Z,1.80
2019-03-16T21:44:06.389Z,1.90
2019-03-16T21:46:37.742Z,1.77
2019-03-16T21:49:08.121Z,1.60
2019-03-16T21:51:38.182Z,1.70
2019-03-16T21:54:08.464Z,1.80
2019-03-16T21:56:38.826Z,1.23
2019-03-16T21:59:08.040Z,1.97
2019-03-16T22:01:38.435Z,1.53
2019-03-16T22:04:09.481Z,1.67
2019-03-16T22:06:39.182Z,1.60
2019-03-16T22:09:08.970Z,1.63
2019-03-16T22:11:37.407Z,1.33
2019-03-16T22:14:08.577Z,1.70
2019-03-16T22:16:37.275Z,1.40
2019-03-16T22:19:08.750Z,1.60
2019-03-16T22:21:38.250Z,1.60
2019-03-16T22:24:09.499Z,1.67
2019-03-16T22:26:39.995Z,1.70
2019-03-16T22:29:08.420Z,1.40
2019-03-16T22:31:36.840Z,1.80
2019-03-16T22:34:06.892Z,1.60
2019-03-16T22:36:37.531Z,1.33
2019-03-16T22:39:11.517Z,1.60
2019-03-16T22:41:41.013Z,1.87
2019-03-16T22:44:09.684Z,1.50
2019-03-16T22:46:38.099Z,1.70
2019-03-16T22:49:06.545Z,1.50
2019-03-16T22:51:36.969Z,1.50
2019-03-16T22:54:07.299Z,1.67
2019-03-16T22:56:36.061Z,1.33
2019-03-16T22:59:06.788Z,1.47
2019-03-16T23:01:36.620Z,1.60
2019-03-16T23:04:07.249Z,1.50
2019-03-16T23:06:40.909Z,1.53
2019-03-16T23:09:12.781Z,1.60
2019-03-16T23:11:47.765Z,1.53
2019-03-16T23:14:16.790Z,1.70
2019-03-16T23:16:46.730Z,1.47
2019-03-16T23:19:19.062Z,1.60
2019-03-16T23:21:50.117Z,1.30
2019-03-16T23:24:21.809Z,1.60
2019-03-16T23:26:53.945Z,1.40
2019-03-16T23:29:24.118Z,1.53
2019-03-16T23:31:55.300Z,1.67
2019-03-16T23:34:24.985Z,1.40
2019-03-16T23:36:55.202Z,1.43
2019-03-16T23:39:25.413Z,1.23
2019-03-16T23:41:55.477Z,1.73
2019-03-16T23:44:25.516Z,1.33
2019-03-16T23:46:55.685Z,1.60
2019-03-16T23:49:27.437Z,1.30
2019-03-16T23:51:57.299Z,1.40
2019-03-16T23:54:28.862Z,1.20
2019-03-16T23:57:00.181Z,1.20
2019-03-16T23:59:32.474Z,1.10
